sensor_id;sensor_type;location;lat;lon;timestamp;P1;P2;P0
73546;PMS7003;61807;48.384;-4.386;2022-09-13T00:01:51;9.75;5.00;4.25
73546;PMS7003;61807;48.384;-4.386;2022-09-13T00:04:16;4.50;4.50;3.75
73546;PMS7003;61807;48.384;-4.386;2022-09-13T00:06:42;5.50;4.75;4.00
73546;PMS7003;61807;48.384;-4.386;2022-09-13T00:09:07;6.50;5.25;4.50
73546;PMS7003;61807;48.384;-4.386;2022-09-13T00:11:33;7.00;7.00;5.75
73546;PMS7003;61807;48.384;-4.386;2022-09-13T00:13:58;7.00;5.25;4.25
73546;PMS7003;61807;48.384;-4.386;2022-09-13T00:16:25;5.25;5.25;4.50
73546;PMS7003;61807;48.384;-4.386;2022-09-13T00:18:52;4.00;4.00;4.00
73546;PMS7003;61807;48.384;-4.386;2022-09-13T00:21:19;4.50;4.25;3.75
73546;PMS7003;61807;48.384;-4.386;2022-09-13T00:23:47;5.00;5.00;4.00
73546;PMS7003;61807;48.384;-4.386;2022-09-13T00:26:16;8.25;6.00;5.00
73546;PMS7003;61807;48.384;-4.386;2022-09-13T00:28:43;6.75;6.50;4.25
73546;PMS7003;61807;48.384;-4.386;2022-09-13T00:31:11;6.25;5.25;4.25
73546;PMS7003;61807;48.384;-4.386;2022-09-13T00:33:38;5.50;5.50;5.00
73546;PMS7003;61807;48.384;-4.386;2022-09-13T00:36:07;5.75;5.00;4.00
73546;PMS7003;61807;48.384;-4.386;2022-09-13T00:38:34;6.00;6.00;4.50
73546;PMS7003;61807;48.384;-4.386;2022-09-13T00:41:01;8.25;5.50;4.00
73546;PMS7003;61807;48.384;-4.386;2022-09-13T00:43:47;7.25;5.25;4.25
73546;PMS7003;61807;48.384;-4.386;2022-09-13T00:46:34;5.75;4.50;4.00
73546;PMS7003;61807;48.384;-4.386;2022-09-13T00:51:40;5.25;5.25;4.75
73546;PMS7003;61807;48.384;-4.386;2022-09-13T00:54:09;5.00;5.00;4.25
73546;PMS7003;61807;48.384;-4.386;2022-09-13T00:56:38;6.75;5.00;4.50
73546;PMS7003;61807;48.384;-4.386;2022-09-13T00:59:12;6.00;4.50;4.00
73546;PMS7003;61807;48.384;-4.386;2022-09-13T01:01:44;5.75;5.00;4.75
73546;PMS7003;61807;48.384;-4.386;2022-09-13T01:04:13;11.25;6.00;5.00
73546;PMS7003;61807;48.384;-4.386;2022-09-13T01:06:41;6.75;6.75;6.00
73546;PMS7003;61807;48.384;-4.386;2022-09-13T01:09:09;1.50;1.50;1.50
73546;PMS7003;61807;48.384;-4.386;2022-09-13T01:11:49;6.00;5.00;4.25
73546;PMS7003;61807;48.384;-4.386;2022-09-13T01:14:20;8.25;6.00;5.00
73546;PMS7003;61807;48.384;-4.386;2022-09-13T01:16:47;6.00;5.75;4.75
73546;PMS7003;61807;48.384;-4.386;2022-09-13T01:19:13;5.00;4.50;4.00
73546;PMS7003;61807;48.384;-4.386;2022-09-13T01:21:54;5.25;4.75;4.00
73546;PMS7003;61807;48.384;-4.386;2022-09-13T01:27:22;6.00;5.50;4.75
73546;PMS7003;61807;48.384;-4.386;2022-09-13T01:30:12;6.00;4.25;4.00
73546;PMS7003;61807;48.384;-4.386;2022-09-13T01:35:59;8.25;6.50;6.00
73546;PMS7003;61807;48.384;-4.386;2022-09-13T01:39:03;7.00;7.00;5.00
73546;PMS7003;61807;48.384;-4.386;2022-09-13T01:46:50;7.00;5.00;4.00
73546;PMS7003;61807;48.384;-4.386;2022-09-13T01:54:57;5.00;5.00;5.00
73546;PMS7003;61807;48.384;-4.386;2022-09-13T01:57:32;6.00;5.00;5.00
73546;PMS7003;61807;48.384;-4.386;2022-09-13T02:00:06;5.00;4.25;4.00
73546;PMS7003;61807;48.384;-4.386;2022-09-13T02:07:56;8.25;5.00;4.25
73546;PMS7003;61807;48.384;-4.386;2022-09-13T02:10:31;6.50;5.50;4.00
73546;PMS7003;61807;48.384;-4.386;2022-09-13T02:13:00;7.00;5.00;4.00
73546;PMS7003;61807;48.384;-4.386;2022-09-13T02:15:36;7.50;5.00;5.00
73546;PMS7003;61807;48.384;-4.386;2022-09-13T02:18:08;7.50;5.00;4.00
73546;PMS7003;61807;48.384;-4.386;2022-09-13T02:20:39;3.75;3.75;3.25
73546;PMS7003;61807;48.384;-4.386;2022-09-13T02:23:09;5.00;5.00;4.25
73546;PMS7003;61807;48.384;-4.386;2022-09-13T02:25:41;8.50;5.25;4.00
73546;PMS7003;61807;48.384;-4.386;2022-09-13T02:28:11;6.00;5.00;4.00
73546;PMS7003;61807;48.384;-4.386;2022-09-13T02:30:40;4.25;3.50;3.00
73546;PMS7003;61807;48.384;-4.386;2022-09-13T02:33:11;8.00;6.00;5.00
73546;PMS7003;61807;48.384;-4.386;2022-09-13T02:35:55;6.25;5.25;4.25
73546;PMS7003;61807;48.384;-4.386;2022-09-13T02:38:30;8.00;5.75;5.25
73546;PMS7003;61807;48.384;-4.386;2022-09-13T02:44:13;6.00;5.00;4.75
73546;PMS7003;61807;48.384;-4.386;2022-09-13T02:47:10;6.50;6.50;5.00
73546;PMS7003;61807;48.384;-4.386;2022-09-13T02:57:46;7.25;5.25;5.00
73546;PMS7003;61807;48.384;-4.386;2022-09-13T03:00:24;4.25;3.75;3.00
73546;PMS7003;61807;48.384;-4.386;2022-09-13T03:02:49;6.50;5.50;5.00
73546;PMS7003;61807;48.384;-4.386;2022-09-13T03:05:17;5.25;5.25;4.25
73546;PMS7003;61807;48.384;-4.386;2022-09-13T03:07:43;7.00;6.75;5.00
73546;PMS7003;61807;48.384;-4.386;2022-09-13T03:10:09;6.25;5.00;5.00
73546;PMS7003;61807;48.384;-4.386;2022-09-13T03:26:29;8.50;5.50;5.00
73546;PMS7003;61807;48.384;-4.386;2022-09-13T03:29:22;7.75;6.75;4.75
73546;PMS7003;61807;48.384;-4.386;2022-09-13T03:34:47;5.50;4.75;4.00
73546;PMS7003;61807;48.384;-4.386;2022-09-13T03:37:24;12.25;6.25;5.00
73546;PMS7003;61807;48.384;-4.386;2022-09-13T03:45:23;8.00;6.25;5.00
73546;PMS7003;61807;48.384;-4.386;2022-09-13T03:47:52;6.50;5.00;5.00
73546;PMS7003;61807;48.384;-4.386;2022-09-13T03:50:20;10.00;5.75;5.00
73546;PMS7003;61807;48.384;-4.386;2022-09-13T03:52:54;9.25;6.50;5.25
73546;PMS7003;61807;48.384;-4.386;2022-09-13T03:55:25;6.25;5.00;4.25
73546;PMS7003;61807;48.384;-4.386;2022-09-13T03:57:51;8.75;5.25;5.00
73546;PMS7003;61807;48.384;-4.386;2022-09-13T04:00:17;9.50;6.00;5.50
73546;PMS7003;61807;48.384;-4.386;2022-09-13T04:02:43;8.50;6.00;4.50
73546;PMS7003;61807;48.384;-4.386;2022-09-13T04:05:08;6.25;5.00;4.00
73546;PMS7003;61807;48.384;-4.386;2022-09-13T04:07:34;6.75;6.00;5.00
73546;PMS7003;61807;48.384;-4.386;2022-09-13T04:09:59;6.75;6.00;4.50
73546;PMS7003;61807;48.384;-4.386;2022-09-13T04:12:25;6.00;6.00;5.00
73546;PMS7003;61807;48.384;-4.386;2022-09-13T04:14:51;8.75;5.25;4.25
73546;PMS7003;61807;48.384;-4.386;2022-09-13T04:17:16;8.00;7.00;5.50
73546;PMS7003;61807;48.384;-4.386;2022-09-13T04:19:42;9.25;7.25;5.50
73546;PMS7003;61807;48.384;-4.386;2022-09-13T04:22:09;7.50;5.50;5.00
73546;PMS7003;61807;48.384;-4.386;2022-09-13T04:24:35;8.50;6.00;4.00
73546;PMS7003;61807;48.384;-4.386;2022-09-13T04:27:00;5.00;5.00;4.75
73546;PMS7003;61807;48.384;-4.386;2022-09-13T04:29:26;5.00;5.00;4.00
73546;PMS7003;61807;48.384;-4.386;2022-09-13T04:31:53;8.00;4.75;3.75
73546;PMS7003;61807;48.384;-4.386;2022-09-13T04:34:19;8.75;7.00;5.25
73546;PMS7003;61807;48.384;-4.386;2022-09-13T04:36:47;7.00;5.25;4.00
73546;PMS7003;61807;48.384;-4.386;2022-09-13T04:39:13;7.50;4.50;4.00
73546;PMS7003;61807;48.384;-4.386;2022-09-13T04:41:39;8.25;6.00;4.00
73546;PMS7003;61807;48.384;-4.386;2022-09-13T04:44:05;8.50;5.25;3.75
73546;PMS7003;61807;48.384;-4.386;2022-09-13T04:46:30;5.50;4.00;4.00
73546;PMS7003;61807;48.384;-4.386;2022-09-13T04:48:56;10.00;5.50;3.75
73546;PMS7003;61807;48.384;-4.386;2022-09-13T04:51:21;9.00;5.75;4.75
73546;PMS7003;61807;48.384;-4.386;2022-09-13T04:53:51;5.75;4.75;4.00
73546;PMS7003;61807;48.384;-4.386;2022-09-13T04:56:21;7.25;5.00;4.00
73546;PMS7003;61807;48.384;-4.386;2022-09-13T04:58:47;4.75;4.75;4.00
73546;PMS7003;61807;48.384;-4.386;2022-09-13T05:01:15;7.00;5.00;3.75
73546;PMS7003;61807;48.384;-4.386;2022-09-13T05:03:40;4.75;4.75;3.00
73546;PMS7003;61807;48.384;-4.386;2022-09-13T05:06:10;6.75;4.50;3.75
73546;PMS7003;61807;48.384;-4.386;2022-09-13T05:08:38;7.75;4.50;3.00
73546;PMS7003;61807;48.384;-4.386;2022-09-13T05:11:04;8.00;4.00;3.00
73546;PMS7003;61807;48.384;-4.386;2022-09-13T05:13:31;8.75;5.25;4.25
73546;PMS7003;61807;48.384;-4.386;2022-09-13T05:15:58;4.75;3.50;2.50
73546;PMS7003;61807;48.384;-4.386;2022-09-13T05:18:25;4.25;4.25;2.75
73546;PMS7003;61807;48.384;-4.386;2022-09-13T05:20:55;5.75;4.00;3.75
73546;PMS7003;61807;48.384;-4.386;2022-09-13T05:23:22;6.50;3.00;3.00
73546;PMS7003;61807;48.384;-4.386;2022-09-13T05:26:07;5.50;3.25;3.00
73546;PMS7003;61807;48.384;-4.386;2022-09-13T05:28:33;5.50;4.25;4.00
73546;PMS7003;61807;48.384;-4.386;2022-09-13T05:31:01;4.50;3.00;3.00
73546;PMS7003;61807;48.384;-4.386;2022-09-13T05:33:29;8.50;5.00;3.25
73546;PMS7003;61807;48.384;-4.386;2022-09-13T05:35:56;6.25;4.00;3.00
73546;PMS7003;61807;48.384;-4.386;2022-09-13T05:38:22;6.00;4.25;3.75
73546;PMS7003;61807;48.384;-4.386;2022-09-13T05:40:52;5.25;5.00;4.00
73546;PMS7003;61807;48.384;-4.386;2022-09-13T05:43:21;5.75;3.50;3.00
73546;PMS7003;61807;48.384;-4.386;2022-09-13T05:45:47;8.50;3.25;3.00
73546;PMS7003;61807;48.384;-4.386;2022-09-13T05:48:13;5.00;4.00;3.25
73546;PMS7003;61807;48.384;-4.386;2022-09-13T05:50:38;7.25;4.00;3.00
73546;PMS7003;61807;48.384;-4.386;2022-09-13T05:53:04;5.00;4.25;3.00
73546;PMS7003;61807;48.384;-4.386;2022-09-13T05:55:29;5.75;5.75;3.00
73546;PMS7003;61807;48.384;-4.386;2022-09-13T05:57:55;5.00;3.25;2.00
73546;PMS7003;61807;48.384;-4.386;2022-09-13T06:00:20;6.75;3.00;2.50
73546;PMS7003;61807;48.384;-4.386;2022-09-13T06:02:47;7.75;3.50;2.75
73546;PMS7003;61807;48.384;-4.386;2022-09-13T06:05:13;5.00;5.00;4.00
73546;PMS7003;61807;48.384;-4.386;2022-09-13T06:07:39;4.25;4.00;3.00
73546;PMS7003;61807;48.384;-4.386;2022-09-13T06:10:08;3.50;2.75;2.00
73546;PMS7003;61807;48.384;-4.386;2022-09-13T06:12:35;3.00;3.00;2.00
73546;PMS7003;61807;48.384;-4.386;2022-09-13T06:15:00;4.50;4.00;3.00
73546;PMS7003;61807;48.384;-4.386;2022-09-13T06:17:26;6.00;3.75;3.00
73546;PMS7003;61807;48.384;-4.386;2022-09-13T06:19:51;4.00;4.00;3.00
73546;PMS7003;61807;48.384;-4.386;2022-09-13T06:22:17;6.50;4.00;2.75
73546;PMS7003;61807;48.384;-4.386;2022-09-13T06:24:42;3.00;3.00;2.25
73546;PMS7003;61807;48.384;-4.386;2022-09-13T06:27:07;4.50;3.00;2.50
73546;PMS7003;61807;48.384;-4.386;2022-09-13T06:29:34;4.50;3.00;3.00
73546;PMS7003;61807;48.384;-4.386;2022-09-13T06:32:00;9.00;4.00;3.00
73546;PMS7003;61807;48.384;-4.386;2022-09-13T06:34:26;4.00;3.50;3.00
73546;PMS7003;61807;48.384;-4.386;2022-09-13T06:36:52;4.75;4.25;3.00
73546;PMS7003;61807;48.384;-4.386;2022-09-13T06:39:17;8.00;3.75;3.50
73546;PMS7003;61807;48.384;-4.386;2022-09-13T06:41:43;6.00;3.00;3.00
73546;PMS7003;61807;48.384;-4.386;2022-09-13T06:44:08;5.50;3.25;2.00
73546;PMS7003;61807;48.384;-4.386;2022-09-13T06:46:34;5.50;5.00;3.50
73546;PMS7003;61807;48.384;-4.386;2022-09-13T06:49:00;5.50;5.25;4.00
73546;PMS7003;61807;48.384;-4.386;2022-09-13T06:51:27;3.75;2.00;1.00
73546;PMS7003;61807;48.384;-4.386;2022-09-13T06:53:54;6.25;4.00;3.25
73546;PMS7003;61807;48.384;-4.386;2022-09-13T06:56:24;7.25;4.00;3.50
73546;PMS7003;61807;48.384;-4.386;2022-09-13T06:58:51;7.25;2.50;2.00
73546;PMS7003;61807;48.384;-4.386;2022-09-13T07:01:21;6.00;2.50;2.50
73546;PMS7003;61807;48.384;-4.386;2022-09-13T07:03:52;7.00;3.00;3.00
73546;PMS7003;61807;48.384;-4.386;2022-09-13T07:08:46;5.00;3.00;2.00
73546;PMS7003;61807;48.384;-4.386;2022-09-13T07:11:13;3.50;2.75;1.75
73546;PMS7003;61807;48.384;-4.386;2022-09-13T07:13:40;4.00;4.00;3.00
73546;PMS7003;61807;48.384;-4.386;2022-09-13T07:16:07;4.75;4.00;2.75
73546;PMS7003;61807;48.384;-4.386;2022-09-13T07:18:34;3.25;3.25;2.00
73546;PMS7003;61807;48.384;-4.386;2022-09-13T07:21:00;4.00;3.00;2.25
73546;PMS7003;61807;48.384;-4.386;2022-09-13T07:23:27;22.00;19.25;11.00
73546;PMS7003;61807;48.384;-4.386;2022-09-13T07:25:57;3.75;2.75;2.00
73546;PMS7003;61807;48.384;-4.386;2022-09-13T07:28:26;9.75;2.50;2.00
73546;PMS7003;61807;48.384;-4.386;2022-09-13T07:31:03;6.25;2.25;2.00
73546;PMS7003;61807;48.384;-4.386;2022-09-13T07:33:33;2.25;2.25;2.00
73546;PMS7003;61807;48.384;-4.386;2022-09-13T07:35:59;5.75;4.00;3.00
73546;PMS7003;61807;48.384;-4.386;2022-09-13T07:38:27;5.00;3.00;2.00
73546;PMS7003;61807;48.384;-4.386;2022-09-13T07:40:56;2.50;2.25;2.00
73546;PMS7003;61807;48.384;-4.386;2022-09-13T07:43:23;8.75;5.00;3.00
73546;PMS7003;61807;48.384;-4.386;2022-09-13T07:45:59;4.75;3.00;2.00
73546;PMS7003;61807;48.384;-4.386;2022-09-13T07:48:28;3.00;3.00;2.00
73546;PMS7003;61807;48.384;-4.386;2022-09-13T07:51:04;3.25;2.25;1.50
73546;PMS7003;61807;48.384;-4.386;2022-09-13T07:53:30;3.00;3.00;2.25
73546;PMS7003;61807;48.384;-4.386;2022-09-13T07:56:03;6.50;4.00;3.00
73546;PMS7003;61807;48.384;-4.386;2022-09-13T07:58:31;3.00;2.00;1.00
73546;PMS7003;61807;48.384;-4.386;2022-09-13T08:01:02;8.25;3.00;2.00
73546;PMS7003;61807;48.384;-4.386;2022-09-13T08:03:33;10.00;3.00;2.00
73546;PMS7003;61807;48.384;-4.386;2022-09-13T08:06:00;2.00;2.00;1.00
73546;PMS7003;61807;48.384;-4.386;2022-09-13T08:08:26;6.50;3.25;2.25
73546;PMS7003;61807;48.384;-4.386;2022-09-13T08:10:52;9.00;3.00;2.00
73546;PMS7003;61807;48.384;-4.386;2022-09-13T08:13:18;3.75;2.25;2.00
73546;PMS7003;61807;48.384;-4.386;2022-09-13T08:15:43;5.00;2.00;2.00
73546;PMS7003;61807;48.384;-4.386;2022-09-13T08:18:09;3.50;2.00;1.00
73546;PMS7003;61807;48.384;-4.386;2022-09-13T08:20:35;4.75;3.00;2.00
73546;PMS7003;61807;48.384;-4.386;2022-09-13T08:23:02;3.50;2.50;2.00
73546;PMS7003;61807;48.384;-4.386;2022-09-13T08:25:30;3.50;3.00;2.50
73546;PMS7003;61807;48.384;-4.386;2022-09-13T08:28:21;5.50;2.50;2.00
73546;PMS7003;61807;48.384;-4.386;2022-09-13T08:30:46;6.75;2.00;1.50
73546;PMS7003;61807;48.384;-4.386;2022-09-13T08:33:12;4.00;3.00;2.00
73546;PMS7003;61807;48.384;-4.386;2022-09-13T08:35:38;2.00;2.00;1.00
73546;PMS7003;61807;48.384;-4.386;2022-09-13T08:38:04;3.00;2.25;2.00
73546;PMS7003;61807;48.384;-4.386;2022-09-13T08:40:31;4.25;3.00;2.75
73546;PMS7003;61807;48.384;-4.386;2022-09-13T08:43:14;4.75;3.00;2.25
73546;PMS7003;61807;48.384;-4.386;2022-09-13T08:45:47;5.50;2.00;1.75
73546;PMS7003;61807;48.384;-4.386;2022-09-13T08:48:15;3.25;3.25;2.25
73546;PMS7003;61807;48.384;-4.386;2022-09-13T08:50:47;3.75;2.50;2.00
73546;PMS7003;61807;48.384;-4.386;2022-09-13T09:06:36;3.00;1.50;1.00
73546;PMS7003;61807;48.384;-4.386;2022-09-13T09:09:05;4.00;1.75;1.25
73546;PMS7003;61807;48.384;-4.386;2022-09-13T09:16:53;2.00;2.00;1.50
73546;PMS7003;61807;48.384;-4.386;2022-09-13T09:19:23;2.00;2.00;1.75
73546;PMS7003;61807;48.384;-4.386;2022-09-13T09:21:55;3.00;1.00;1.00
73546;PMS7003;61807;48.384;-4.386;2022-09-13T09:24:23;2.25;1.00;1.00
73546;PMS7003;61807;48.384;-4.386;2022-09-13T09:26:51;2.00;1.75;1.00
73546;PMS7003;61807;48.384;-4.386;2022-09-13T09:37:49;5.00;2.00;1.00
73546;PMS7003;61807;48.384;-4.386;2022-09-13T09:40:38;3.00;1.25;1.00
73546;PMS7003;61807;48.384;-4.386;2022-09-13T09:43:11;1.25;1.25;1.00
73546;PMS7003;61807;48.384;-4.386;2022-09-13T09:45:46;3.00;1.00;1.00
73546;PMS7003;61807;48.384;-4.386;2022-09-13T09:48:15;4.00;3.25;3.00
73546;PMS7003;61807;48.384;-4.386;2022-09-13T09:50:46;3.25;1.75;1.25
73546;PMS7003;61807;48.384;-4.386;2022-09-13T09:53:26;4.00;1.00;1.00
73546;PMS7003;61807;48.384;-4.386;2022-09-13T09:56:00;4.00;2.00;2.00
73546;PMS7003;61807;48.384;-4.386;2022-09-13T09:58:39;4.50;2.25;2.00
73546;PMS7003;61807;48.384;-4.386;2022-09-13T10:01:20;1.75;1.75;1.25
73546;PMS7003;61807;48.384;-4.386;2022-09-13T10:06:27;4.00;2.00;2.00
73546;PMS7003;61807;48.384;-4.386;2022-09-13T10:11:21;4.50;2.00;1.75
73546;PMS7003;61807;48.384;-4.386;2022-09-13T10:13:56;5.00;2.75;2.00
73546;PMS7003;61807;48.384;-4.386;2022-09-13T10:16:25;2.00;2.00;2.00
73546;PMS7003;61807;48.384;-4.386;2022-09-13T10:18:52;7.25;2.75;2.00
73546;PMS7003;61807;48.384;-4.386;2022-09-13T10:23:47;2.50;2.00;2.00
73546;PMS7003;61807;48.384;-4.386;2022-09-13T10:26:20;2.25;2.00;1.75
73546;PMS7003;61807;48.384;-4.386;2022-09-13T10:31:44;4.50;3.00;2.00
73546;PMS7003;61807;48.384;-4.386;2022-09-13T10:36:57;2.75;1.75;1.25
73546;PMS7003;61807;48.384;-4.386;2022-09-13T10:39:26;5.50;3.50;3.00
73546;PMS7003;61807;48.384;-4.386;2022-09-13T10:42:06;2.00;2.00;2.00
73546;PMS7003;61807;48.384;-4.386;2022-09-13T10:44:42;4.00;2.25;2.00
73546;PMS7003;61807;48.384;-4.386;2022-09-13T10:47:10;3.00;2.00;1.00
73546;PMS7003;61807;48.384;-4.386;2022-09-13T10:49:46;2.50;1.25;1.00
73546;PMS7003;61807;48.384;-4.386;2022-09-13T10:52:41;5.00;1.75;1.00
73546;PMS7003;61807;48.384;-4.386;2022-09-13T10:57:43;2.75;1.75;1.75
73546;PMS7003;61807;48.384;-4.386;2022-09-13T11:00:10;6.50;1.75;1.00
73546;PMS7003;61807;48.384;-4.386;2022-09-13T11:05:42;5.75;2.00;1.00
73546;PMS7003;61807;48.384;-4.386;2022-09-13T11:24:21;3.00;1.50;1.50
73546;PMS7003;61807;48.384;-4.386;2022-09-13T11:26:58;4.75;4.00;3.00
73546;PMS7003;61807;48.384;-4.386;2022-09-13T11:35:16;3.25;2.00;2.00
73546;PMS7003;61807;48.384;-4.386;2022-09-13T11:38:02;3.25;3.00;2.00
73546;PMS7003;61807;48.384;-4.386;2022-09-13T11:51:16;1.50;1.50;1.00
73546;PMS7003;61807;48.384;-4.386;2022-09-13T11:57:30;3.25;1.00;1.00
73546;PMS7003;61807;48.384;-4.386;2022-09-13T12:00:00;5.50;3.00;2.00
73546;PMS7003;61807;48.384;-4.386;2022-09-13T12:02:54;2.75;2.00;2.00
73546;PMS7003;61807;48.384;-4.386;2022-09-13T12:05:30;6.25;3.00;1.25
73546;PMS7003;61807;48.384;-4.386;2022-09-13T12:08:04;3.50;2.00;2.00
73546;PMS7003;61807;48.384;-4.386;2022-09-13T12:10:56;6.00;2.00;2.00
73546;PMS7003;61807;48.384;-4.386;2022-09-13T12:13:30;2.00;2.00;1.25
73546;PMS7003;61807;48.384;-4.386;2022-09-13T12:16:04;2.75;1.50;1.25
73546;PMS7003;61807;48.384;-4.386;2022-09-13T12:21:54;3.75;2.75;2.00
73546;PMS7003;61807;48.384;-4.386;2022-09-13T12:24:12;1.50;1.00;1.00
73546;PMS7003;61807;48.384;-4.386;2022-09-13T12:26:45;3.50;1.00;1.00
73546;PMS7003;61807;48.384;-4.386;2022-09-13T12:29:39;7.50;3.00;2.50
73546;PMS7003;61807;48.384;-4.386;2022-09-13T12:32:17;4.25;2.00;1.75
73546;PMS7003;61807;48.384;-4.386;2022-09-13T12:40:24;3.00;1.75;1.00
73546;PMS7003;61807;48.384;-4.386;2022-09-13T12:57:26;2.75;2.00;1.75
73546;PMS7003;61807;48.384;-4.386;2022-09-13T13:05:27;3.00;1.75;1.00
73546;PMS7003;61807;48.384;-4.386;2022-09-13T13:07:59;4.00;2.25;2.00
73546;PMS7003;61807;48.384;-4.386;2022-09-13T13:10:31;3.25;2.25;2.00
73546;PMS7003;61807;48.384;-4.386;2022-09-13T13:21:22;3.25;1.25;1.00
73546;PMS7003;61807;48.384;-4.386;2022-09-13T13:24:36;4.75;2.75;2.00
73546;PMS7003;61807;48.384;-4.386;2022-09-13T13:34:41;4.00;2.00;1.50
73546;PMS7003;61807;48.384;-4.386;2022-09-13T13:39:40;3.75;3.00;2.00
73546;PMS7003;61807;48.384;-4.386;2022-09-13T13:42:24;6.75;2.00;2.00
73546;PMS7003;61807;48.384;-4.386;2022-09-13T14:00:47;2.75;1.00;1.00
73546;PMS7003;61807;48.384;-4.386;2022-09-13T14:03:31;2.00;2.00;2.00
73546;PMS7003;61807;48.384;-4.386;2022-09-13T14:06:16;5.00;2.00;1.00
73546;PMS7003;61807;48.384;-4.386;2022-09-13T14:15:00;7.75;2.75;2.00
73546;PMS7003;61807;48.384;-4.386;2022-09-13T14:20:26;1.75;1.75;1.75
73546;PMS7003;61807;48.384;-4.386;2022-09-13T14:23:09;2.50;2.50;2.00
73546;PMS7003;61807;48.384;-4.386;2022-09-13T14:25:37;5.25;3.50;2.50
73546;PMS7003;61807;48.384;-4.386;2022-09-13T14:28:03;3.00;3.00;2.00
73546;PMS7003;61807;48.384;-4.386;2022-09-13T14:30:34;1.50;1.50;1.00
73546;PMS7003;61807;48.384;-4.386;2022-09-13T14:33:01;4.00;2.50;2.00
73546;PMS7003;61807;48.384;-4.386;2022-09-13T14:35:33;2.25;2.25;2.00
73546;PMS7003;61807;48.384;-4.386;2022-09-13T14:40:47;4.00;3.00;2.50
73546;PMS7003;61807;48.384;-4.386;2022-09-13T14:43:15;1.50;1.00;1.00
73546;PMS7003;61807;48.384;-4.386;2022-09-13T14:45:44;1.00;1.00;1.00
73546;PMS7003;61807;48.384;-4.386;2022-09-13T14:50:51;3.75;2.00;2.00
73546;PMS7003;61807;48.384;-4.386;2022-09-13T14:53:23;3.75;2.75;2.50
73546;PMS7003;61807;48.384;-4.386;2022-09-13T14:55:52;3.25;3.25;3.00
73546;PMS7003;61807;48.384;-4.386;2022-09-13T14:58:29;4.00;3.75;3.00
73546;PMS7003;61807;48.384;-4.386;2022-09-13T15:01:04;4.50;4.00;3.00
73546;PMS7003;61807;48.384;-4.386;2022-09-13T15:03:33;2.75;2.00;2.00
73546;PMS7003;61807;48.384;-4.386;2022-09-13T15:05:59;3.50;2.75;2.75
73546;PMS7003;61807;48.384;-4.386;2022-09-13T15:11:02;4.75;3.25;3.00
73546;PMS7003;61807;48.384;-4.386;2022-09-13T15:13:29;5.50;2.50;2.50
73546;PMS7003;61807;48.384;-4.386;2022-09-13T15:15:55;4.00;4.00;3.00
73546;PMS7003;61807;48.384;-4.386;2022-09-13T15:18:25;3.50;3.00;2.25
73546;PMS7003;61807;48.384;-4.386;2022-09-13T15:21:02;4.25;3.00;2.50
73546;PMS7003;61807;48.384;-4.386;2022-09-13T15:23:41;3.50;2.50;2.00
73546;PMS7003;61807;48.384;-4.386;2022-09-13T15:26:21;4.75;2.75;2.00
73546;PMS7003;61807;48.384;-4.386;2022-09-13T15:31:34;5.00;4.00;3.00
73546;PMS7003;61807;48.384;-4.386;2022-09-13T15:36:47;4.50;3.75;3.00
73546;PMS7003;61807;48.384;-4.386;2022-09-13T15:39:17;4.00;3.00;3.00
73546;PMS7003;61807;48.384;-4.386;2022-09-13T15:41:57;6.75;4.75;4.00
73546;PMS7003;61807;48.384;-4.386;2022-09-13T15:44:27;5.00;3.25;3.00
73546;PMS7003;61807;48.384;-4.386;2022-09-13T15:47:06;4.00;3.00;2.25
73546;PMS7003;61807;48.384;-4.386;2022-09-13T15:49:34;6.00;3.25;3.00
73546;PMS7003;61807;48.384;-4.386;2022-09-13T15:52:01;4.25;3.50;3.25
73546;PMS7003;61807;48.384;-4.386;2022-09-13T15:54:32;3.00;3.00;2.25
73546;PMS7003;61807;48.384;-4.386;2022-09-13T15:57:07;6.50;4.75;4.00
73546;PMS7003;61807;48.384;-4.386;2022-09-13T15:59:34;5.50;4.00;3.50
73546;PMS7003;61807;48.384;-4.386;2022-09-13T16:02:00;3.25;3.25;3.00
73546;PMS7003;61807;48.384;-4.386;2022-09-13T16:04:36;6.00;3.50;3.00
73546;PMS7003;61807;48.384;-4.386;2022-09-13T16:07:02;5.50;4.50;3.75
73546;PMS7003;61807;48.384;-4.386;2022-09-13T16:09:27;4.75;4.25;3.25
73546;PMS7003;61807;48.384;-4.386;2022-09-13T16:11:53;6.00;4.75;3.75
73546;PMS7003;61807;48.384;-4.386;2022-09-13T16:14:18;3.00;3.00;3.00
73546;PMS7003;61807;48.384;-4.386;2022-09-13T16:16:44;6.75;5.50;4.25
73546;PMS7003;61807;48.384;-4.386;2022-09-13T16:19:20;9.00;6.75;5.75
73546;PMS7003;61807;48.384;-4.386;2022-09-13T16:21:47;6.25;4.25;3.25
73546;PMS7003;61807;48.384;-4.386;2022-09-13T16:24:13;4.50;3.25;3.00
73546;PMS7003;61807;48.384;-4.386;2022-09-13T16:26:39;6.00;4.50;3.25
73546;PMS7003;61807;48.384;-4.386;2022-09-13T16:29:05;5.50;5.00;4.00
73546;PMS7003;61807;48.384;-4.386;2022-09-13T16:31:30;5.75;4.75;4.00
73546;PMS7003;61807;48.384;-4.386;2022-09-13T16:33:56;4.50;3.75;2.75
73546;PMS7003;61807;48.384;-4.386;2022-09-13T16:36:21;4.75;4.25;4.00
73546;PMS7003;61807;48.384;-4.386;2022-09-13T16:38:47;6.75;4.25;3.00
73546;PMS7003;61807;48.384;-4.386;2022-09-13T16:41:12;4.00;3.00;2.00
73546;PMS7003;61807;48.384;-4.386;2022-09-13T16:43:38;5.00;5.00;4.75
73546;PMS7003;61807;48.384;-4.386;2022-09-13T16:46:07;5.50;4.25;3.00
73546;PMS7003;61807;48.384;-4.386;2022-09-13T16:48:33;4.50;4.00;3.25
73546;PMS7003;61807;48.384;-4.386;2022-09-13T16:51:02;5.00;4.00;3.25
73546;PMS7003;61807;48.384;-4.386;2022-09-13T16:53:33;5.25;4.50;4.00
73546;PMS7003;61807;48.384;-4.386;2022-09-13T16:56:04;5.00;4.00;4.00
73546;PMS7003;61807;48.384;-4.386;2022-09-13T16:58:35;15.75;11.75;9.00
73546;PMS7003;61807;48.384;-4.386;2022-09-13T17:01:03;28.75;17.50;10.50
73546;PMS7003;61807;48.384;-4.386;2022-09-13T17:03:34;5.00;4.00;4.00
73546;PMS7003;61807;48.384;-4.386;2022-09-13T17:06:02;10.75;6.75;5.25
73546;PMS7003;61807;48.384;-4.386;2022-09-13T17:08:29;6.75;4.25;4.00
73546;PMS7003;61807;48.384;-4.386;2022-09-13T17:10:56;6.25;5.00;4.00
73546;PMS7003;61807;48.384;-4.386;2022-09-13T17:13:21;5.00;5.00;4.00
73546;PMS7003;61807;48.384;-4.386;2022-09-13T17:15:48;4.50;4.50;4.00
73546;PMS7003;61807;48.384;-4.386;2022-09-13T17:18:14;6.00;4.00;3.75
73546;PMS7003;61807;48.384;-4.386;2022-09-13T17:20:46;4.50;4.50;3.75
73546;PMS7003;61807;48.384;-4.386;2022-09-13T17:23:13;11.50;6.25;4.00
73546;PMS7003;61807;48.384;-4.386;2022-09-13T17:25:40;6.00;5.50;4.00
73546;PMS7003;61807;48.384;-4.386;2022-09-13T17:28:09;6.25;5.75;5.00
73546;PMS7003;61807;48.384;-4.386;2022-09-13T17:30:35;8.00;5.00;3.75
73546;PMS7003;61807;48.384;-4.386;2022-09-13T17:33:01;5.50;4.00;3.00
73546;PMS7003;61807;48.384;-4.386;2022-09-13T17:35:26;5.00;5.00;4.00
73546;PMS7003;61807;48.384;-4.386;2022-09-13T17:37:53;4.00;4.00;3.25
73546;PMS7003;61807;48.384;-4.386;2022-09-13T17:40:19;7.75;5.00;4.25
73546;PMS7003;61807;48.384;-4.386;2022-09-13T17:42:44;6.00;4.50;3.50
73546;PMS7003;61807;48.384;-4.386;2022-09-13T17:45:12;4.75;4.50;4.00
73546;PMS7003;61807;48.384;-4.386;2022-09-13T17:47:37;15.75;12.00;7.00
73546;PMS7003;61807;48.384;-4.386;2022-09-13T17:50:03;14.00;10.75;6.75
73546;PMS7003;61807;48.384;-4.386;2022-09-13T17:52:29;8.00;5.00;5.00
73546;PMS7003;61807;48.384;-4.386;2022-09-13T17:54:54;26.75;20.25;12.50
73546;PMS7003;61807;48.384;-4.386;2022-09-13T17:57:19;7.50;6.50;5.00
73546;PMS7003;61807;48.384;-4.386;2022-09-13T17:59:46;13.25;11.75;8.00
73546;PMS7003;61807;48.384;-4.386;2022-09-13T18:02:13;5.00;4.25;4.25
73546;PMS7003;61807;48.384;-4.386;2022-09-13T18:04:38;6.50;5.75;4.25
73546;PMS7003;61807;48.384;-4.386;2022-09-13T18:07:04;18.00;10.25;7.25
73546;PMS7003;61807;48.384;-4.386;2022-09-13T18:09:29;5.50;5.25;4.00
73546;PMS7003;61807;48.384;-4.386;2022-09-13T18:11:55;6.50;5.00;4.25
73546;PMS7003;61807;48.384;-4.386;2022-09-13T18:14:20;5.50;4.25;4.00